TimeEDT,TemperatureF,Dew PointF,Humidity,Sea Level PressureIn,VisibilityMPH,Wind Direction,Wind SpeedMPH,Gust SpeedMPH,PrecipitationIn,Events,Conditions,WindDirDegrees,DateUTC
12:51 AM,61.0,54.0,78,30.69,10.0,WNW,4.6,-,N/A,,Clear,300,2013-10-03 04:51:00
1:51 AM,59.0,52.0,78,30.71,10.0,West,3.5,-,N/A,,Clear,260,2013-10-03 05:51:00
2:51 AM,54.9,52.0,90,30.71,10.0,Calm,Calm,-,N/A,,Clear,0,2013-10-03 06:51:00
3:51 AM,52.9,50.9,93,30.74,10.0,Calm,Calm,-,N/A,,Clear,0,2013-10-03 07:51:00
4:51 AM,50.9,50.0,97,30.75,10.0,Calm,Calm,-,N/A,,Clear,0,2013-10-03 08:51:00
5:51 AM,48.9,46.9,93,30.77,10.0,Calm,Calm,-,N/A,,Clear,0,2013-10-03 09:51:00
6:51 AM,47.8,46.9,97,30.79,10.0,Calm,Calm,-,N/A,,Clear,0,2013-10-03 10:51:00
7:51 AM,50.9,48.9,93,30.82,10.0,Calm,Calm,-,N/A,,Clear,0,2013-10-03 11:51:00
8:51 AM,59.0,50.9,74,30.83,10.0,Calm,Calm,-,N/A,,Clear,0,2013-10-03 12:51:00
9:51 AM,68.0,48.9,50,30.83,10.0,NW,9.2,-,N/A,,Clear,310,2013-10-03 13:51:00
10:51 AM,70.0,48.9,47,30.82,10.0,Calm,Calm,-,N/A,,Clear,0,2013-10-03 14:51:00
11:51 AM,72.0,50.0,46,30.81,10.0,Calm,Calm,-,N/A,,Clear,0,2013-10-03 15:51:00
12:51 PM,73.9,43.9,34,30.79,10.0,Calm,Calm,-,N/A,,Clear,0,2013-10-03 16:51:00
1:51 PM,77.0,43.0,30,30.76,10.0,South,4.6,-,N/A,,Clear,190,2013-10-03 17:51:00
2:51 PM,77.0,43.0,30,30.75,10.0,WNW,6.9,-,N/A,,Clear,300,2013-10-03 18:51:00
3:51 PM,77.0,41.9,28,30.74,10.0,WSW,3.5,-,N/A,,Clear,250,2013-10-03 19:51:00
4:51 PM,75.9,43.9,32,30.74,10.0,Variable,3.5,-,N/A,,Clear,0,2013-10-03 20:51:00
5:51 PM,70.0,48.9,47,30.75,10.0,Calm,Calm,-,N/A,,Clear,0,2013-10-03 21:51:00
6:51 PM,63.9,52.9,67,30.77,10.0,NW,5.8,-,N/A,,Clear,320,2013-10-03 22:51:00
7:51 PM,61.0,52.0,72,30.79,10.0,Calm,Calm,-,N/A,,Clear,0,2013-10-03 23:51:00
8:51 PM,59.0,52.0,78,30.79,10.0,Calm,Calm,-,N/A,,Clear,0,2013-10-04 00:51:00
9:51 PM,56.8,52.0,84,30.80,10.0,Calm,Calm,-,N/A,,Clear,0,2013-10-04 01:51:00
10:51 PM,55.9,52.0,87,30.81,10.0,NW,3.5,-,N/A,,Clear,310,2013-10-04 02:51:00
11:51 PM,55.9,52.0,87,30.80,10.0,Calm,Calm,-,N/A,,Clear,0,2013-10-04 03:51:00